Погода Барисална неделю

Барисал, Бангладеш

29 февраля-06 марта
  • 29февраля
    Сегодня
    +17°
    +31°
    Ясно и безоблачно
    ВремяПогодаТемператураВлажностьДавлениеВетер, м/сВероятность осадков
    00:00Ясно и безоблачно+20°C86 %760 мм1.7 м/с2 %
    03:00Ясно и безоблачно+22°C89 %759 мм1.6 м/с2 %
    06:00Ясно и безоблачно+19°C96 %759 мм1.4 м/с2 %
    09:00Ясно и безоблачно+25°C72 %761 мм0.4 м/с2 %
    12:00Ясно и безоблачно+30°C50 %761 мм1.6 м/с2 %
    15:00Ясно и безоблачно+31°C44 %759 мм3.5 м/с2 %
    18:00Ясно и безоблачно+25°C65 %759 мм2.1 м/с2 %
    21:00Ясно и безоблачно+21°C79 %761 мм2.2 м/с2 %
  • 01марта
    Пятница
    +17°
    +31°
    Ясно и безоблачно
    ВремяПогодаТемператураВлажностьДавлениеВетер, м/сВероятность осадков
    00:00Ясно и безоблачно+22°C72 %761 мм0.8 м/с2 %
    03:00Ясно и безоблачно+22°C86 %760 мм1.1 м/с2 %
    06:00Ясно и безоблачно+17°C94 %761 мм2.2 м/с2 %
    09:00Ясно и безоблачно+24°C64 %763 мм0.8 м/с2 %
    12:00Ясно и безоблачно+30°C39 %762 мм0.8 м/с2 %
    15:00Ясно и безоблачно+31°C34 %759 мм2.3 м/с2 %
    18:00Ясно и безоблачно+24°C56 %759 мм2.2 м/с2 %
    21:00Ясно и безоблачно+21°C64 %761 мм2.2 м/с2 %
  • 02марта
    Суббота
    +20°
    +32°
    Ясно и безоблачно
    ВремяПогодаТемператураВлажностьДавлениеВетер, м/сВероятность осадков
    00:00Ясно и безоблачно+22°C67 %760 мм0.5 м/с2 %
    03:00Ясно и безоблачно+21°C86 %759 мм2.5 м/с2 %
    06:00Ясно и безоблачно+17°C82 %760 мм2.4 м/с2 %
    09:00Ясно и безоблачно+24°C59 %761 мм0.3 м/с2 %
    12:00Ясно и безоблачно+30°C36 %761 мм1.2 м/с2 %
    15:00Ясно и безоблачно+31°C36 %758 мм2.0 м/с2 %
    18:00Ясно и безоблачно+25°C56 %758 мм1.6 м/с2 %
    21:00Ясно и безоблачно+22°C78 %760 мм1.8 м/с2 %
  • 03марта
    Воскресенье
    +21°
    +33°
    Ясно и безоблачно
    ВремяПогодаТемператураВлажностьДавлениеВетер, м/сВероятность осадков
    00:00Ясно и безоблачно+20°C95 %759 мм2.2 м/с2 %
    03:00Небольшая облачность+22°C99 %758 мм1.7 м/с2 %
    06:00Пасмурно, сплошная облачность+20°C99 %759 мм1.0 м/с2 %
    09:00Практически безоблачно+24°C89 %761 мм1.6 м/с2 %
    12:00Ясно и безоблачно+31°C53 %759 мм2.1 м/с2 %
    15:00Ясно и безоблачно+33°C45 %757 мм1.4 м/с2 %
    18:00Ясно и безоблачно+28°C60 %757 мм0.5 м/с2 %
    21:00Ясно и безоблачно+24°C82 %759 мм1.6 м/с2 %
  • 04марта
    Понедельник
    +21°
    +34°
    Практически безоблачно
    ВремяПогодаТемператураВлажностьДавлениеВетер, м/сВероятность осадков
    00:00Ясно и безоблачно+22°C94 %758 мм2.7 м/с2 %
    03:00Ясно и безоблачно+24°C96 %757 мм3.3 м/с2 %
    06:00Ясно и безоблачно+22°C97 %759 мм2.2 м/с2 %
    09:00Пасмурно, сплошная облачность+26°C79 %760 мм2.0 м/с2 %
    12:00Ясно и безоблачно+31°C53 %759 мм1.5 м/с5 %
    15:00Практически безоблачно+33°C47 %757 мм0.5 м/с20 %
    18:00Ясно и безоблачно+27°C67 %757 мм2.0 м/с26 %
    21:00Ясно и безоблачно+25°C84 %759 мм1.9 м/с8 %
Мы используем cookies
Соглашаюсь